METAR Reports

 

KMRH - Beaufort, North Carolina, USA
Distance from station: E 8mi, 12km
Updated: Sat, 26-May-2018 12:58am EDT
Clear
Clear
 Wind from SSW
Wind: SSW 9 mph , 15 km/h
Temperature: 73°F , 23°C
Dew Point: 72°F , 22°C
Humidity: 94%
Barometer: 30.03 inHg , 1016.9 hPa
Clouds: Clear
Visibility: 10 miles , 16 km
2018/05/26 04:58 KMRH 260458Z AUTO 21008KT 10SM CLR 23/22 A3003 RMK AO2 SLP168 T02330222 402720189
KEWN - New Bern, North Carolina, USA
Distance from station: NW 33mi, 40km
Updated: Sat, 26-May-2018 12:54am EDT
Clear
Clear
 Wind from SSW
Wind: SSW 6 mph , 9 km/h
Temperature: 70°F , 21°C
Dew Point: 70°F , 21°C
Humidity: 100%
Barometer: 30.03 inHg , 1016.9 hPa
Clouds: Clear
Visibility: 9 miles , 14 km
2018/05/26 04:54 KEWN 260454Z AUTO 20005KT 9SM CLR 21/21 A3003 RMK AO2 SLP170 T02110211 402890161
 
KPGV - Greenville, North Carolina, USA
Updated: Sat, 26-May-2018 1:45am EDT
Clear
Clear
 Wind from SSW
Wind: SSW 8 mph , 13 km/h
Temperature: 72°F , 22°C
Dew Point: 70°F , 21°C
Humidity: 94%
Barometer: 30.02 inHg , 1016.6 hPa
Clouds: Clear
Visibility: 10 miles , 16 km
2018/05/26 05:45 KPGV 260545Z AUTO 21007KT 10SM CLR 22/21 A3002 RMK AO2
KOAJ - Richlands, North Carolina, USA
Updated: Sat, 26-May-2018 12:56am EDT
Clear
Clear
 Wind from SSW
Wind: SSW 3 mph , 6 km/h
Temperature: 70°F , 21°C
Dew Point: 70°F , 21°C
Humidity: 100%
Barometer: 30.03 inHg , 1016.9 hPa
Clouds: Clear
Visibility: 7 miles , 11 km
2018/05/26 04:56 KOAJ 260456Z AUTO 20003KT 7SM CLR 21/21 A3003 RMK AO2 SLP173 T02110206 402890161
 
KISO - Kinston, North Carolina, USA
Distance from station: NW 73mi, 87km
Updated: Fri, 25-May-2018 9:56pm EDT
NOT Current
Clear
Clear
 Wind from S
Wind: S 6 mph , 9 km/h
Temperature: 73°F , 23°C
Dew Point: 70°F , 21°C
Humidity: 89%
Barometer: 30.02 inHg , 1016.6 hPa
Clouds: Clear
Visibility: 10 miles , 16 km
2018/05/26 01:56 KISO 260156Z 17005KT 10SM SKC 23/21 A3002
KHSE - Buxton, North Carolina, USA
Distance from station: NE 89mi, 102km
Updated: Sat, 26-May-2018 12:51am EDT
Clear
Clear
 Wind from SW
Wind: SW 8 mph , 13 km/h
Temperature: 75°F , 24°C
Dew Point: 72°F , 22°C
Humidity: 89%
Barometer: 30.03 inHg , 1016.9 hPa
Clouds: Clear
Visibility: 10 miles , 16 km
2018/05/26 04:51 KHSE 260451Z AUTO 22007KT 10SM CLR 24/22 A3003 RMK AO2 SLP168 T02390222 403000178
 
KNCA - Jacksonville, North Carolina, USA
Distance from station: SW 48mi, 60km
Updated: Sat, 26-May-2018 12:56am EDT
Clear
Clear
 Wind from calm
Wind: Calm
Temperature: 72°F , 22°C
Dew Point: 72°F , 22°C
Humidity: 100%
Barometer: 30.02 inHg , 1016.6 hPa
Clouds: Clear
Visibility: 10 miles , 16 km
2018/05/26 04:56 KNCA 260456Z AUTO 00000KT 10SM CLR 22/22 A3002 RMK AO2 SLP168 T02220222 402890183
KNKT - Cherry Point, North Carolina, USA
Distance from station: NW 9mi, 12km
Updated: Fri, 25-May-2018 11:58pm EDT
NOT Current
Clear
Clear
 Wind from S
Wind: S 5 mph , 7 km/h
Temperature: 73°F , 23°C
Dew Point: 73°F , 23°C
Humidity: 100%
Barometer: 30.03 inHg , 1016.9 hPa
Clouds: Clear
Visibility: 7 miles , 11 km
2018/05/26 03:58 KNKT 260358Z 19004KT 7SM SKC 23/23 A3003 RMK SLP166 T02330228
 
KOCW - Washington, North Carolina, USA
Distance from station: N 73mi, 87km
Updated: Sat, 26-May-2018 1:35am EDT
Clear
Clear
 Wind from calm
Wind: Calm
Temperature: 72°F , 22°C
Dew Point: 70°F , 21°C
Humidity: 94%
Barometer: 30.01 inHg , 1016.3 hPa
Clouds: Clear
Visibility: 10 miles , 16 km
2018/05/26 05:35 KOCW 260535Z AUTO 00000KT 10SM CLR 22/21 A3001 RMK AO2 T02160208
KDPL - Kenansville, North Carolina, USA
Distance from station: W 86mi, 98km
Updated: Sat, 26-May-2018 1:35am EDT
Mist, Clear
Mist, Clear
 Wind from calm
Wind: Calm
Temperature: 68°F , 20°C
Dew Point: 68°F , 20°C
Humidity: 100%
Barometer: 30.02 inHg , 1016.6 hPa
Summary: Mist
Clouds: Clear
Visibility: 5 miles , 8 km
2018/05/26 05:35 KDPL 260535Z AUTO 00000KT 5SM BR CLR 20/20 A3002 RMK AO2
 
KMQI - Manteo, North Carolina, USA
Updated: Sat, 26-May-2018 1:35am EDT
Clear
Clear
 Wind from WSW
Wind: WSW 13 mph , 20 km/h
Temperature: 73°F , 23°C
Dew Point: 70°F , 21°C
Humidity: 89%
Barometer: 30.00 inHg , 1015.9 hPa
Clouds: Clear
Visibility: 10 miles , 16 km
2018/05/26 05:35 KMQI 260535Z AUTO 24011KT 10SM CLR 23/21 A3000 RMK AO2 T02290210
KFFA - Kill Devil Hills, North Carolina, USA
Updated: Sat, 26-May-2018 1:30am EDT
Partly Cloudy
Partly Cloudy
 Wind from SW
Wind: SW 6 mph , 9 km/h
Temperature: 73°F , 23°C
Dew Point: 70°F , 21°C
Humidity: 89%
Barometer: 29.99 inHg , 1015.6 hPa
Clouds: Partly Cloudy
Visibility: 10 miles , 16 km
Cloud details: Partly Cloudy 12000 ft
2018/05/26 05:30 KFFA 260530Z AUTO 22005KT 10SM SCT120 23/21 A2999 RMK AO2 T02290208
 
KILM - Wilmington, North Carolina, USA
Updated: Sat, 26-May-2018 12:53am EDT
Clear
Clear
 Wind from calm
Wind: Calm
Temperature: 73°F , 23°C
Dew Point: 70°F , 21°C
Humidity: 89%
Barometer: 30.03 inHg , 1016.9 hPa
Clouds: Clear
Visibility: 10 miles , 16 km
2018/05/26 04:53 KILM 260453Z AUTO 00000KT 10SM CLR 23/21 A3003 RMK AO2 SLP169 T02280211 402780206
KRDU - Raleigh, North Carolina, USA
Updated: Sat, 26-May-2018 12:51am EDT
Few Clouds
Few Clouds
 Wind from SW
Wind: SW 9 mph , 15 km/h
Temperature: 72°F , 22°C
Dew Point: 70°F , 21°C
Humidity: 94%
Barometer: 30.00 inHg , 1015.9 hPa
Clouds: Few Clouds
Visibility: 10 miles , 16 km
Cloud details: Few Clouds 4400 ft
Few Clouds 25000 ft
2018/05/26 04:51 KRDU 260451Z 23008KT 10SM FEW044 FEW250 22/21 A3000 RMK AO2 SLP155 T02170206 403000183